Avon, NC

5:57 AM EDT on April 28, 2017 (GMT -0400)
| | Change Station
Active Advisory: Beach Hazard Statement

Elev -9999 ft 0.00 °N, 0.00 °E | Updated 0 second ago

Mostly Cloudy
Mostly Cloudy
°F
Feels Like °F
N
Wind Variable Wind from North
Gusts mph

Today
High -- | Low -- °F
--% Chance of Precip.
Yesterday
High -- | Low -- °F
Precip. -- in
Pressure 30.04 in
Visibility 2.5 miles
Clouds Few 2300 ft
Dew Point Not available.
Humidity Not available.
Rainfall --
Snow Depth Not available.
6:13 AM 7:45 PM
Waxing Crescent, 5% visible
METAR KHSE 280951Z AUTO 21008KT 2 1/2SM BR FEW023 23/21 A3004 RMK AO2 SLP171 T02280211 TSNO
Pressure 30.04 in
Visibility 2.5 miles
Clouds Few 2300 ft
Dew Point Not available.
Humidity Not available.
Rainfall --
Snow Depth Not available.
6:13 AM 7:45 PM
Waxing Crescent, 5% visible
METAR KHSE 280951Z AUTO 21008KT 2 1/2SM BR FEW023 23/21 A3004 RMK AO2 SLP171 T02280211 TSNO

Get Your Daily Forecast Email!

Thanks for signing up!

Be on the lookout for a verification email in your inbox.

You'll start receiving severe weather alerts in your inbox..

×

10-Day Weather Forecast

Almanac

Astronomy

Apr. 28, 2017 Rise Set
Actual Time
Civil Twilight
Nautical Twilight
Astronomical Twilight
Moon
Length of Visible Light
Length of Day
Tomorrow will be .
, % of the Moon is Illuminated

Today's Extremes

State Highs State Lows

Community

WunderPhotos

WunderBlog® & News

Nearby

Air Quality

  Air Quality AQ Index Pollutant
Not available.

Snow Depth

Station Depth Elevation

Earthquake Activity

City Distance Mag. Time & Date
Minimum magnitude displayed is 2.5.

Coastal Water Temperatures

Place Temperature

Stations

Nearby Weather Stations

Station Location Temp. Windchill Dew Point Humidity Wind Precip. Elev Updated Type
                   

Watches & Warnings

Beach Hazard Statement
Issued: 4:22 AM EDT Apr. 28, 2017 – National Weather Service

... Beach hazards statement remains in effect through this
evening...

* hazards... high rip current risk.

* Location... especially east facing beaches.

* Timing and tides... the most likely time for life threatening rip
currents will be a couple hours either side of low tide. Low
tide this afternoon will be around 3 PM.

Precautionary/preparedness actions...

If caught in a rip current remain calm. Don't fight the current.
Swim in a direction following the shoreline. When out of the
current, swim back to shore. If tired, float or tread water until
out of the rip current. If unable to escape, face the shore and
call or wave for help.